createdAt,value
2018-07-06T00:01:29.655Z,11.23
2018-07-06T00:04:09.075Z,11.17
2018-07-06T00:06:48.343Z,11.63
2018-07-06T00:09:27.757Z,11.40
2018-07-06T00:12:07.100Z,10.90
2018-07-06T00:14:46.490Z,11.60
2018-07-06T00:17:26.093Z,11.40
2018-07-06T00:20:05.643Z,11.57
2018-07-06T00:22:45.071Z,12.00
2018-07-06T00:25:24.480Z,12.07
2018-07-06T00:28:03.888Z,12.07
2018-07-06T00:30:43.241Z,11.27
2018-07-06T00:33:22.696Z,11.83
2018-07-06T00:36:02.074Z,11.37
2018-07-06T00:38:41.465Z,11.90
2018-07-06T00:41:20.835Z,11.93
2018-07-06T00:44:00.215Z,11.57
2018-07-06T00:46:39.802Z,12.60
2018-07-06T00:49:19.418Z,12.07
2018-07-06T00:51:58.930Z,12.10
2018-07-06T00:54:38.490Z,13.43
2018-07-06T00:57:17.971Z,12.90
2018-07-06T00:59:57.448Z,13.10
2018-07-06T01:02:36.858Z,13.10
2018-07-06T01:05:16.307Z,12.63
2018-07-06T01:07:55.823Z,12.10
2018-07-06T01:10:35.335Z,13.10
2018-07-06T01:13:14.628Z,13.43
2018-07-06T01:15:53.974Z,12.20
2018-07-06T01:18:33.389Z,13.00
2018-07-06T01:21:12.814Z,12.90
2018-07-06T01:23:52.241Z,13.00
2018-07-06T01:26:31.566Z,13.93
2018-07-06T01:29:11.138Z,14.20
2018-07-06T01:31:50.525Z,13.73
2018-07-06T01:34:30.013Z,14.00
2018-07-06T01:37:09.438Z,14.50
2018-07-06T01:39:48.830Z,14.83
2018-07-06T01:42:28.350Z,14.40
2018-07-06T01:45:07.726Z,14.40
2018-07-06T01:47:47.126Z,13.93
2018-07-06T01:50:26.650Z,14.00
2018-07-06T01:53:06.017Z,13.97
2018-07-06T01:55:45.465Z,14.63
2018-07-06T01:58:24.974Z,15.30
2018-07-06T02:01:04.374Z,15.10
2018-07-06T02:03:43.750Z,14.17
2018-07-06T02:06:23.206Z,14.90
2018-07-06T02:09:02.698Z,15.40
2018-07-06T02:11:42.186Z,14.50
2018-07-06T02:14:21.628Z,15.33
2018-07-06T02:17:01.146Z,14.87
2018-07-06T02:19:40.634Z,14.47
2018-07-06T02:22:20.091Z,15.77
2018-07-06T02:24:59.442Z,15.87
2018-07-06T02:27:38.842Z,14.03
2018-07-06T02:30:18.275Z,14.20
2018-07-06T02:32:57.671Z,15.00
2018-07-06T02:35:37.227Z,15.17
2018-07-06T02:38:16.734Z,15.40
2018-07-06T02:40:56.401Z,15.73
2018-07-06T02:43:35.965Z,15.33
2018-07-06T02:46:15.427Z,15.80
2018-07-06T02:48:54.819Z,15.33
2018-07-06T02:51:34.418Z,15.00
2018-07-06T02:54:13.879Z,15.10
2018-07-06T02:56:53.216Z,15.90
2018-07-06T02:59:32.608Z,16.47
2018-07-06T03:02:12.019Z,15.53
2018-07-06T03:04:51.402Z,15.10
2018-07-06T03:07:30.970Z,15.70
2018-07-06T03:10:10.502Z,15.90
2018-07-06T03:12:49.894Z,15.77
2018-07-06T03:15:29.278Z,16.20
2018-07-06T03:18:08.652Z,16.50
2018-07-06T03:20:48.039Z,16.40
2018-07-06T03:23:27.382Z,15.27
2018-07-06T03:26:06.946Z,15.00
2018-07-06T03:28:46.544Z,16.57
2018-07-06T03:31:25.748Z,15.13
2018-07-06T03:34:05.262Z,15.07
2018-07-06T03:36:44.719Z,14.17
2018-07-06T03:39:24.068Z,15.70
2018-07-06T03:42:03.498Z,16.17
2018-07-06T03:44:43.002Z,15.80
2018-07-06T03:47:22.546Z,15.23
2018-07-06T03:50:01.939Z,15.37
2018-07-06T03:52:41.291Z,14.73
2018-07-06T03:55:22.403Z,15.30
2018-07-06T03:58:03.573Z,15.47
2018-07-06T04:00:42.954Z,14.80
2018-07-06T04:03:22.455Z,13.50
2018-07-06T04:06:02.103Z,13.73
2018-07-06T04:08:41.474Z,16.03
2018-07-06T04:11:20.971Z,16.43
2018-07-06T04:14:00.414Z,14.97
2018-07-06T04:16:39.794Z,15.60
2018-07-06T04:19:19.350Z,15.37
2018-07-06T04:21:58.726Z,16.33
2018-07-06T04:24:38.107Z,15.67
2018-07-06T04:27:17.557Z,15.57
2018-07-06T04:29:57.018Z,15.23
2018-07-06T04:32:36.418Z,15.43
2018-07-06T04:35:15.854Z,15.30
2018-07-06T04:37:55.281Z,16.30
2018-07-06T04:40:34.638Z,16.00
2018-07-06T04:43:14.038Z,16.17
2018-07-06T04:45:53.470Z,15.80
2018-07-06T04:48:32.946Z,17.20
2018-07-06T04:51:12.305Z,15.83
2018-07-06T04:53:51.798Z,16.17
2018-07-06T04:56:31.192Z,15.90
2018-07-06T04:59:10.609Z,16.27
2018-07-06T05:01:50.108Z,17.03
2018-07-06T05:04:29.483Z,15.97
2018-07-06T05:07:09.046Z,16.23
2018-07-06T05:09:48.527Z,16.50
2018-07-06T05:12:28.006Z,16.30
2018-07-06T05:15:07.448Z,15.80
2018-07-06T05:17:46.934Z,15.80
2018-07-06T05:20:27.014Z,15.57
2018-07-06T05:23:06.436Z,14.87
2018-07-06T05:25:45.742Z,15.67
2018-07-06T05:28:25.165Z,15.30
2018-07-06T05:31:04.691Z,14.47
2018-07-06T05:33:44.219Z,15.10
2018-07-06T05:36:23.582Z,14.33
2018-07-06T05:39:03.088Z,14.83
2018-07-06T05:41:42.519Z,15.40
2018-07-06T05:44:21.946Z,15.60
2018-07-06T05:47:01.407Z,15.50
2018-07-06T05:49:40.783Z,15.27
2018-07-06T05:52:20.286Z,16.37
2018-07-06T05:54:59.702Z,16.97
2018-07-06T05:57:39.080Z,17.50
2018-07-06T06:00:18.679Z,16.90
2018-07-06T06:02:58.142Z,19.70
2018-07-06T06:05:37.522Z,18.00
2018-07-06T06:08:04.646Z,20.33
2018-07-06T06:10:32.834Z,19.40
2018-07-06T06:13:01.009Z,21.40
2018-07-06T06:15:29.190Z,21.23
2018-07-06T06:17:57.369Z,21.87
2018-07-06T06:20:25.534Z,22.90
2018-07-06T06:22:53.706Z,21.53
2018-07-06T06:25:21.882Z,22.37
2018-07-06T06:27:50.052Z,27.33
2018-07-06T06:30:18.234Z,26.47
2018-07-06T06:32:46.410Z,26.87
2018-07-06T06:35:14.587Z,28.17
2018-07-06T06:37:42.937Z,28.27
2018-07-06T06:40:11.131Z,29.23
2018-07-06T06:42:39.331Z,32.27
2018-07-06T06:45:07.511Z,31.20
2018-07-06T06:47:35.717Z,31.60
2018-07-06T06:50:03.934Z,33.20
2018-07-06T06:52:32.125Z,34.67
2018-07-06T06:55:01.163Z,32.50
2018-07-06T06:57:29.362Z,31.73
2018-07-06T06:59:57.554Z,33.30
2018-07-06T07:02:25.738Z,29.67
2018-07-06T07:04:53.928Z,34.53
2018-07-06T07:07:22.157Z,32.07
2018-07-06T07:09:50.311Z,34.70
2018-07-06T07:12:18.494Z,34.40
2018-07-06T07:14:46.860Z,36.70
2018-07-06T07:17:15.038Z,38.77
2018-07-06T07:19:43.238Z,35.63
2018-07-06T07:22:11.459Z,40.63
2018-07-06T07:24:39.750Z,40.30
2018-07-06T07:27:07.916Z,37.43
2018-07-06T07:29:36.088Z,32.30
2018-07-06T07:32:04.278Z,31.13
2018-07-06T07:34:32.466Z,31.00
2018-07-06T07:37:00.634Z,27.93
2018-07-06T07:39:28.838Z,25.50
2018-07-06T07:41:57.030Z,26.03
2018-07-06T07:44:25.210Z,26.63
2018-07-06T07:46:53.391Z,30.03
2018-07-06T07:49:21.564Z,36.00
2018-07-06T07:52:06.238Z,38.50
2018-07-06T07:54:49.275Z,32.70
2018-07-06T07:57:17.451Z,33.57
2018-07-06T07:59:45.634Z,27.90
2018-07-06T08:02:13.815Z,24.90
2018-07-06T08:04:42.162Z,24.90
2018-07-06T08:07:10.321Z,23.17
2018-07-06T08:09:38.502Z,24.13
2018-07-06T08:12:06.706Z,28.70
2018-07-06T08:14:34.942Z,26.93
2018-07-06T08:17:03.038Z,30.47
2018-07-06T08:19:31.207Z,32.90
2018-07-06T08:21:59.367Z,34.93
2018-07-06T08:24:27.513Z,34.03
2018-07-06T08:26:55.670Z,33.13
2018-07-06T08:29:23.846Z,35.93
2018-07-06T08:31:52.018Z,33.13
2018-07-06T08:34:31.558Z,34.33
2018-07-06T08:37:52.244Z,34.40
2018-07-06T08:40:21.310Z,36.97
2018-07-06T08:42:50.728Z,37.90
2018-07-06T08:45:18.890Z,38.13
2018-07-06T08:47:47.587Z,40.53
2018-07-06T08:50:15.779Z,41.77
2018-07-06T08:52:45.058Z,43.57
2018-07-06T08:55:13.216Z,44.23
2018-07-06T08:57:42.430Z,44.77
2018-07-06T09:00:11.436Z,45.37
2018-07-06T09:02:39.610Z,45.30
2018-07-06T09:05:08.314Z,43.97
2018-07-06T09:07:36.552Z,45.87
2018-07-06T09:10:04.834Z,43.23
2018-07-06T09:12:32.994Z,46.60
2018-07-06T09:15:01.803Z,41.80
2018-07-06T09:17:29.979Z,39.80
2018-07-06T09:19:59.286Z,40.90
2018-07-06T09:22:27.350Z,42.37
2018-07-06T09:24:56.853Z,41.70
2018-07-06T09:27:25.006Z,42.47
2018-07-06T09:29:53.465Z,40.87
2018-07-06T09:32:21.412Z,42.00
2018-07-06T09:34:49.602Z,43.70
2018-07-06T09:37:17.798Z,41.50
2018-07-06T09:39:46.716Z,41.77
2018-07-06T09:42:15.400Z,43.80
2018-07-06T09:44:43.598Z,41.67
2018-07-06T09:47:11.795Z,43.17
2018-07-06T09:49:39.964Z,40.20
2018-07-06T09:52:08.151Z,41.47
2018-07-06T09:54:36.368Z,42.30
2018-07-06T09:57:04.564Z,40.53
2018-07-06T09:59:32.746Z,38.40
2018-07-06T10:02:00.921Z,40.43
2018-07-06T10:04:29.113Z,40.37
2018-07-06T10:06:57.279Z,38.87
2018-07-06T10:09:25.514Z,38.03
2018-07-06T10:11:53.799Z,37.80
2018-07-06T10:14:21.997Z,38.40
2018-07-06T10:16:50.193Z,35.90
2018-07-06T10:19:18.401Z,36.47
2018-07-06T10:21:46.602Z,34.70
2018-07-06T10:24:14.749Z,37.13
2018-07-06T10:26:42.938Z,35.90
2018-07-06T10:29:29.454Z,33.07
2018-07-06T10:32:07.230Z,35.83
2018-07-06T10:34:35.394Z,36.53
2018-07-06T10:37:03.571Z,35.83
2018-07-06T10:39:31.826Z,37.30
2018-07-06T10:41:59.934Z,38.50
2018-07-06T10:44:28.103Z,37.23
2018-07-06T10:46:56.278Z,36.90
2018-07-06T10:49:24.450Z,38.17
2018-07-06T10:51:52.755Z,37.67
2018-07-06T10:54:20.931Z,34.33
2018-07-06T10:56:49.094Z,35.00
2018-07-06T10:59:17.270Z,34.97
2018-07-06T11:01:45.448Z,33.00
2018-07-06T11:04:13.614Z,35.67
2018-07-06T11:06:41.807Z,33.73
2018-07-06T11:09:09.983Z,34.80
2018-07-06T11:11:38.242Z,36.20
2018-07-06T11:14:06.768Z,37.43
2018-07-06T11:16:34.911Z,38.87
2018-07-06T11:19:03.114Z,35.37
2018-07-06T11:21:31.262Z,38.03
2018-07-06T11:23:59.438Z,38.57
2018-07-06T11:26:27.629Z,35.97
2018-07-06T11:28:55.805Z,39.23
2018-07-06T11:31:23.994Z,35.00
2018-07-06T11:33:52.187Z,33.80
2018-07-06T11:36:20.358Z,32.37
2018-07-06T11:38:48.518Z,33.73
2018-07-06T11:41:16.678Z,33.67
2018-07-06T11:43:44.855Z,30.37
2018-07-06T11:46:13.022Z,29.10
2018-07-06T11:48:41.218Z,30.23
2018-07-06T11:51:09.950Z,30.43
2018-07-06T11:53:38.147Z,28.93
2018-07-06T11:56:06.414Z,28.33
2018-07-06T11:58:34.468Z,28.50
2018-07-06T12:01:02.627Z,29.57
2018-07-06T12:03:30.815Z,27.17
2018-07-06T12:05:58.975Z,27.13
2018-07-06T12:08:27.138Z,25.87
2018-07-06T12:10:55.321Z,24.57
2018-07-06T12:13:23.474Z,24.17
2018-07-06T12:15:52.202Z,24.43
2018-07-06T12:18:20.358Z,22.90
2018-07-06T12:20:48.698Z,22.70
2018-07-06T12:23:16.814Z,22.90
2018-07-06T12:25:44.962Z,23.83
2018-07-06T12:28:13.123Z,22.33
2018-07-06T12:30:41.450Z,22.80
2018-07-06T12:33:09.855Z,23.00
2018-07-06T12:35:38.022Z,21.60
2018-07-06T12:38:06.186Z,21.10
2018-07-06T12:40:34.358Z,19.83
2018-07-06T12:43:02.634Z,22.83
2018-07-06T12:45:31.118Z,22.97
2018-07-06T12:47:59.299Z,22.80
2018-07-06T12:50:27.491Z,22.10
2018-07-06T12:52:55.851Z,21.97
2018-07-06T12:55:24.034Z,22.57
2018-07-06T12:57:52.519Z,20.83
2018-07-06T13:00:21.894Z,18.80
2018-07-06T13:02:50.448Z,20.07
2018-07-06T13:05:18.866Z,20.17
2018-07-06T13:07:47.449Z,19.87
2018-07-06T13:10:15.853Z,19.30
2018-07-06T13:12:44.022Z,20.30
2018-07-06T13:15:12.270Z,19.50
2018-07-06T13:17:40.550Z,19.57
2018-07-06T13:20:08.730Z,17.30
2018-07-06T13:22:37.078Z,17.70
2018-07-06T13:25:05.278Z,18.77
2018-07-06T13:27:33.475Z,18.10
2018-07-06T13:30:01.735Z,17.50
2018-07-06T13:32:29.970Z,16.97
2018-07-06T13:34:58.209Z,17.30
2018-07-06T13:37:26.651Z,16.87
2018-07-06T13:39:55.940Z,16.20
2018-07-06T13:42:24.287Z,15.50
2018-07-06T13:44:52.594Z,15.23
2018-07-06T13:47:21.849Z,15.50
2018-07-06T13:49:50.118Z,14.70
2018-07-06T13:52:18.428Z,15.63
2018-07-06T13:54:46.831Z,16.00
2018-07-06T13:57:15.423Z,16.87
2018-07-06T13:59:43.954Z,15.93
2018-07-06T14:02:12.304Z,15.27
2018-07-06T14:04:40.578Z,15.27
2018-07-06T14:07:09.109Z,15.67
2018-07-06T14:09:37.788Z,15.70
2018-07-06T14:12:06.629Z,16.20
2018-07-06T14:14:35.110Z,15.63
2018-07-06T14:17:03.732Z,15.97
2018-07-06T14:19:32.060Z,16.90
2018-07-06T14:22:00.294Z,16.27
2018-07-06T14:24:28.462Z,15.40
2018-07-06T14:26:56.635Z,15.87
2018-07-06T14:29:25.945Z,15.90
2018-07-06T14:31:54.110Z,14.83
2018-07-06T14:34:22.294Z,14.43
2018-07-06T14:36:50.470Z,15.17
2018-07-06T14:39:18.658Z,14.30
2018-07-06T14:41:46.852Z,14.30
2018-07-06T14:44:15.047Z,14.50
2018-07-06T14:46:43.235Z,13.20
2018-07-06T14:49:11.406Z,13.73
2018-07-06T14:51:39.614Z,13.80
2018-07-06T14:54:07.930Z,13.20
2018-07-06T14:56:36.552Z,12.90
2018-07-06T14:59:05.146Z,13.13
2018-07-06T15:01:34.790Z,13.87
2018-07-06T15:04:03.319Z,13.33
2018-07-06T15:06:31.607Z,14.17
2018-07-06T15:08:59.891Z,13.90
2018-07-06T15:11:27.970Z,14.53
2018-07-06T15:13:56.163Z,13.80
2018-07-06T15:16:24.592Z,13.67
2018-07-06T15:18:52.878Z,15.00
2018-07-06T15:21:21.146Z,14.10
2018-07-06T15:23:49.450Z,13.07
2018-07-06T15:26:17.623Z,13.60
2018-07-06T15:28:45.811Z,14.10
2018-07-06T15:31:14.151Z,13.17
2018-07-06T15:33:42.313Z,13.00
2018-07-06T15:36:10.632Z,14.07
2018-07-06T15:38:38.823Z,12.67
2018-07-06T15:41:07.042Z,13.60
2018-07-06T15:43:35.240Z,14.13
2018-07-06T15:46:03.523Z,15.10
2018-07-06T15:48:31.774Z,14.20
2018-07-06T15:51:00.161Z,14.10
2018-07-06T15:53:28.209Z,14.93
2018-07-06T15:55:56.388Z,14.83
2018-07-06T15:58:24.577Z,15.30
2018-07-06T16:00:52.803Z,15.30
2018-07-06T16:03:21.158Z,14.50
2018-07-06T16:05:49.346Z,14.23
2018-07-06T16:08:17.606Z,13.77
2018-07-06T16:10:45.885Z,14.23
2018-07-06T16:13:14.045Z,15.10
2018-07-06T16:15:42.227Z,15.50
2018-07-06T16:18:10.419Z,13.03
2018-07-06T16:20:38.655Z,15.43
2018-07-06T16:23:06.985Z,14.57
2018-07-06T16:25:35.274Z,13.63
2018-07-06T16:28:03.456Z,13.13
2018-07-06T16:30:31.675Z,13.37
2018-07-06T16:33:00.035Z,14.80
2018-07-06T16:35:28.263Z,12.83
2018-07-06T16:37:56.622Z,12.67
2018-07-06T16:40:24.877Z,13.73
2018-07-06T16:42:53.120Z,12.93
2018-07-06T16:45:21.318Z,11.70
2018-07-06T16:47:49.526Z,12.17
2018-07-06T16:50:18.798Z,11.70
2018-07-06T16:52:46.982Z,13.53
2018-07-06T16:55:15.392Z,13.03
2018-07-06T16:57:43.772Z,12.67
2018-07-06T17:00:12.011Z,13.10
2018-07-06T17:02:40.253Z,11.77
2018-07-06T17:05:08.444Z,11.60
2018-07-06T17:07:36.790Z,11.40
2018-07-06T17:10:05.066Z,11.90
2018-07-06T17:12:33.297Z,11.80
2018-07-06T17:15:01.471Z,11.47
2018-07-06T17:17:29.954Z,11.70
2018-07-06T17:19:58.218Z,12.50
2018-07-06T17:22:26.395Z,12.23
2018-07-06T17:24:54.574Z,11.10
2018-07-06T17:27:22.782Z,12.73
2018-07-06T17:29:50.970Z,12.30
2018-07-06T17:32:19.148Z,11.90
2018-07-06T17:34:47.322Z,11.20
2018-07-06T17:37:15.507Z,11.43
2018-07-06T17:39:43.931Z,12.20
2018-07-06T17:42:12.099Z,12.83
2018-07-06T17:44:40.287Z,13.00
2018-07-06T17:47:08.464Z,13.70
2018-07-06T17:49:36.637Z,12.67
2018-07-06T17:52:04.926Z,12.10
2018-07-06T17:54:33.098Z,10.73
2018-07-06T17:57:01.267Z,11.43
2018-07-06T17:59:29.438Z,12.23
2018-07-06T18:01:57.622Z,11.90
2018-07-06T18:04:27.230Z,12.03
2018-07-06T18:06:55.737Z,11.77
2018-07-06T18:09:24.146Z,12.07
2018-07-06T18:11:52.834Z,12.10
2018-07-06T18:14:21.258Z,12.60
2018-07-06T18:16:50.019Z,11.90
2018-07-06T18:19:18.226Z,11.93
2018-07-06T18:21:46.458Z,11.90
2018-07-06T18:24:14.758Z,10.93
2018-07-06T18:26:42.935Z,11.03
2018-07-06T18:29:11.107Z,11.43
2018-07-06T18:31:39.296Z,11.40
2018-07-06T18:34:07.475Z,12.27
2018-07-06T18:36:35.662Z,12.83
2018-07-06T18:39:05.042Z,12.00
2018-07-06T18:41:33.402Z,12.50
2018-07-06T18:44:01.583Z,11.93
2018-07-06T18:46:29.750Z,11.43
2018-07-06T18:48:57.931Z,11.23
2018-07-06T18:51:26.099Z,12.97
2018-07-06T18:53:54.369Z,12.40
2018-07-06T18:56:22.566Z,12.07
2018-07-06T18:58:50.743Z,12.70
2018-07-06T19:01:18.913Z,12.00
2018-07-06T19:03:47.098Z,12.83
2018-07-06T19:06:15.455Z,13.37
2018-07-06T19:08:43.642Z,12.73
2018-07-06T19:11:11.822Z,11.90
2018-07-06T19:13:40.003Z,11.47
2018-07-06T19:16:08.190Z,11.60
2018-07-06T19:18:36.362Z,11.27
2018-07-06T19:21:04.548Z,12.03
2018-07-06T19:23:32.718Z,11.33
2018-07-06T19:26:00.882Z,11.97
2018-07-06T19:28:29.054Z,12.37
2018-07-06T19:30:57.313Z,12.70
2018-07-06T19:33:25.419Z,11.37
2018-07-06T19:35:53.606Z,11.57
2018-07-06T19:38:21.789Z,11.17
2018-07-06T19:40:50.006Z,12.13
2018-07-06T19:43:18.173Z,12.40
2018-07-06T19:45:46.338Z,12.87
2018-07-06T19:48:14.521Z,12.47
2018-07-06T19:50:42.666Z,11.60
2018-07-06T19:53:10.839Z,12.63
2018-07-06T19:55:39.013Z,12.30
2018-07-06T19:58:07.179Z,12.97
2018-07-06T20:00:35.410Z,13.13
2018-07-06T20:03:03.626Z,13.10
2018-07-06T20:05:31.791Z,12.80
2018-07-06T20:07:59.997Z,12.13
2018-07-06T20:10:28.125Z,12.80
2018-07-06T20:12:56.477Z,11.57
2018-07-06T20:15:24.657Z,11.40
2018-07-06T20:17:52.842Z,12.47
2018-07-06T20:20:21.002Z,12.13
2018-07-06T20:22:49.161Z,12.67
2018-07-06T20:25:17.328Z,12.97
2018-07-06T20:27:45.486Z,13.37
2018-07-06T20:30:13.755Z,12.23
2018-07-06T20:32:41.946Z,12.80
2018-07-06T20:35:10.161Z,12.10
2018-07-06T20:37:38.282Z,12.37
2018-07-06T20:40:06.503Z,12.50
2018-07-06T20:42:34.662Z,12.43
2018-07-06T20:45:02.844Z,11.43
2018-07-06T20:47:31.022Z,12.10
2018-07-06T20:49:59.251Z,12.33
2018-07-06T20:52:27.418Z,12.23
2018-07-06T20:54:55.593Z,11.80
2018-07-06T20:57:23.747Z,13.20
2018-07-06T20:59:51.902Z,12.77
2018-07-06T21:02:20.070Z,12.33
2018-07-06T21:04:48.235Z,13.00
2018-07-06T21:07:16.759Z,12.93
2018-07-06T21:09:44.931Z,12.77
2018-07-06T21:12:13.102Z,13.40
2018-07-06T21:14:41.293Z,13.33
2018-07-06T21:17:09.458Z,13.80
2018-07-06T21:19:37.627Z,13.37
2018-07-06T21:22:06.336Z,12.23
2018-07-06T21:24:34.512Z,14.10
2018-07-06T21:27:02.703Z,13.47
2018-07-06T21:29:30.873Z,12.70
2018-07-06T21:31:59.034Z,13.17
2018-07-06T21:34:27.206Z,12.87
2018-07-06T21:36:55.465Z,14.30
2018-07-06T21:39:23.670Z,12.77
2018-07-06T21:41:51.918Z,12.47
2018-07-06T21:44:20.078Z,11.73
2018-07-06T21:46:48.273Z,13.40
2018-07-06T21:49:16.442Z,13.77
2018-07-06T21:51:44.602Z,13.03
2018-07-06T21:54:12.763Z,12.60
2018-07-06T21:56:40.926Z,12.60
2018-07-06T21:59:09.083Z,12.80
2018-07-06T22:01:37.235Z,13.00
2018-07-06T22:04:05.427Z,13.43
2018-07-06T22:06:33.643Z,13.50
2018-07-06T22:09:01.796Z,12.90
2018-07-06T22:11:29.966Z,14.00
2018-07-06T22:13:58.125Z,12.10
2018-07-06T22:16:26.282Z,12.10
2018-07-06T22:18:54.450Z,13.33
2018-07-06T22:21:22.606Z,13.07
2018-07-06T22:23:50.776Z,13.70
2018-07-06T22:26:18.935Z,12.83
2018-07-06T22:28:47.102Z,12.97
2018-07-06T22:31:15.262Z,13.40
2018-07-06T22:33:43.421Z,13.13
2018-07-06T22:36:11.574Z,12.70
2018-07-06T22:38:39.745Z,13.50
2018-07-06T22:41:07.905Z,12.60
2018-07-06T22:43:36.069Z,12.57
2018-07-06T22:46:04.254Z,12.87
2018-07-06T22:48:32.441Z,13.33
2018-07-06T22:51:00.644Z,13.13
2018-07-06T22:53:28.806Z,13.03
2018-07-06T22:55:57.199Z,14.23
2018-07-06T22:58:25.414Z,12.83
2018-07-06T23:00:53.557Z,14.17
2018-07-06T23:03:21.722Z,12.93
2018-07-06T23:05:49.879Z,13.23
2018-07-06T23:08:18.054Z,15.47
2018-07-06T23:10:46.215Z,15.20
2018-07-06T23:13:14.379Z,15.50
2018-07-06T23:15:42.537Z,15.67
2018-07-06T23:18:10.690Z,14.47
2018-07-06T23:20:38.847Z,15.43
2018-07-06T23:23:09.770Z,15.20
2018-07-06T23:25:39.999Z,15.03
2018-07-06T23:28:08.202Z,16.20
2018-07-06T23:30:36.401Z,16.60
2018-07-06T23:33:05.362Z,16.20
2018-07-06T23:35:33.710Z,16.10
2018-07-06T23:38:01.891Z,15.93
2018-07-06T23:40:30.270Z,17.50
2018-07-06T23:42:58.450Z,18.07
2018-07-06T23:45:26.614Z,17.00
2018-07-06T23:47:54.787Z,17.87
2018-07-06T23:50:23.270Z,17.23
2018-07-06T23:52:51.473Z,17.43
2018-07-06T23:55:19.717Z,17.27
2018-07-06T23:57:48.102Z,15.70
